createdAt,value
2017-09-05T00:00:49.524Z,16.81
2017-09-05T00:05:51.929Z,16.76
2017-09-05T00:16:34.876Z,16.67
2017-09-05T00:21:37.205Z,16.75
2017-09-05T00:26:39.494Z,16.68
2017-09-05T00:31:41.847Z,16.62
2017-09-05T00:36:44.099Z,16.50
2017-09-05T00:41:46.367Z,16.46
2017-09-05T00:46:48.570Z,16.48
2017-09-05T00:51:50.696Z,16.44
2017-09-05T00:56:52.757Z,16.38
2017-09-05T01:01:54.761Z,16.33
2017-09-05T01:06:56.792Z,16.33
2017-09-05T01:11:58.758Z,16.29
2017-09-05T01:17:00.723Z,16.23
2017-09-05T01:22:02.763Z,16.21
2017-09-05T01:27:04.688Z,16.20
2017-09-05T01:32:06.630Z,16.18
2017-09-05T01:37:08.612Z,16.13
2017-09-05T01:42:10.561Z,16.05
2017-09-05T01:47:12.531Z,16.07
2017-09-05T01:52:14.440Z,16.08
2017-09-05T01:57:16.368Z,16.06
2017-09-05T02:02:18.331Z,15.96
2017-09-05T02:07:20.300Z,15.87
2017-09-05T02:12:22.304Z,15.80
2017-09-05T02:17:24.241Z,15.76
2017-09-05T02:22:26.221Z,15.75
2017-09-05T02:27:28.190Z,15.66
2017-09-05T02:32:30.151Z,15.68
2017-09-05T02:37:32.074Z,15.52
2017-09-05T02:42:33.995Z,15.46
2017-09-05T02:47:39.033Z,15.53
2017-09-05T02:52:43.954Z,15.53
2017-09-05T02:57:50.235Z,15.53
2017-09-05T03:02:56.606Z,15.65
2017-09-05T03:08:05.067Z,15.67
2017-09-05T03:13:10.396Z,15.65
2017-09-05T03:18:15.507Z,15.64
2017-09-05T03:23:22.474Z,15.62
2017-09-05T03:28:32.338Z,15.58
2017-09-05T03:33:38.475Z,15.48
2017-09-05T03:38:45.895Z,15.37
2017-09-05T03:43:53.875Z,15.40
2017-09-05T03:48:59.919Z,15.39
2017-09-05T03:54:03.258Z,15.34
2017-09-05T03:59:12.210Z,15.32
2017-09-05T04:04:20.102Z,15.31
2017-09-05T04:09:26.238Z,15.19
2017-09-05T04:14:30.961Z,15.13
2017-09-05T04:19:36.257Z,15.18
2017-09-05T04:24:38.204Z,15.14
2017-09-05T04:29:40.169Z,15.01
2017-09-05T04:34:43.423Z,15.06
2017-09-05T04:39:51.577Z,15.02
2017-09-05T04:44:57.591Z,14.98
2017-09-05T04:50:01.310Z,14.91
2017-09-05T04:55:07.642Z,14.97
2017-09-05T05:00:12.541Z,14.96
2017-09-05T05:05:20.240Z,15.05
2017-09-05T05:10:24.077Z,15.12
2017-09-05T05:15:27.469Z,15.02
2017-09-05T05:20:29.441Z,15.06
2017-09-05T05:25:36.542Z,15.11
2017-09-05T05:30:40.936Z,15.35
2017-09-05T05:35:47.779Z,15.55
2017-09-05T05:40:50.195Z,15.75
2017-09-05T05:45:52.669Z,15.98
2017-09-05T05:50:56.289Z,16.27
2017-09-05T05:56:00.823Z,16.52
2017-09-05T06:01:04.681Z,16.69
2017-09-05T06:06:13.307Z,16.81
2017-09-05T06:11:16.276Z,16.99
2017-09-05T06:16:22.208Z,17.11
2017-09-05T06:21:25.395Z,17.30
2017-09-05T06:26:27.544Z,17.54
2017-09-05T06:31:29.533Z,17.82
2017-09-05T06:36:31.692Z,18.21
2017-09-05T06:41:33.795Z,18.57
2017-09-05T06:46:36.119Z,18.89
2017-09-05T06:51:40.832Z,19.10
2017-09-05T06:56:48.851Z,19.28
2017-09-05T07:01:53.290Z,19.38
2017-09-05T07:06:55.379Z,19.53
2017-09-05T07:11:57.343Z,19.61
2017-09-05T07:16:59.967Z,19.72
2017-09-05T07:22:02.222Z,19.85
2017-09-05T07:27:11.547Z,20.09
2017-09-05T07:32:15.247Z,20.43
2017-09-05T07:37:17.700Z,20.76
2017-09-05T07:42:22.427Z,21.19
2017-09-05T07:47:24.579Z,21.70
2017-09-05T07:52:27.537Z,21.98
2017-09-05T07:57:29.551Z,22.14
2017-09-05T08:02:31.601Z,22.47
2017-09-05T08:07:35.087Z,22.97
2017-09-05T08:12:40.353Z,23.30
2017-09-05T08:17:44.178Z,23.36
2017-09-05T08:22:50.784Z,23.35
2017-09-05T08:27:54.433Z,23.37
2017-09-05T08:32:59.406Z,23.20
2017-09-05T08:38:05.135Z,23.53
2017-09-05T08:43:13.498Z,23.81
2017-09-05T08:48:20.652Z,24.09
2017-09-05T08:53:26.422Z,24.26
2017-09-05T08:58:32.942Z,24.52
2017-09-05T09:03:41.902Z,24.80
2017-09-05T09:08:47.856Z,24.99
2017-09-05T09:13:52.162Z,25.49
2017-09-05T09:18:55.657Z,25.63
2017-09-05T09:24:02.932Z,25.70
2017-09-05T09:29:16.452Z,25.59
2017-09-05T09:34:21.128Z,25.53
2017-09-05T09:39:25.325Z,25.55
2017-09-05T09:44:32.203Z,25.68
2017-09-05T09:49:36.585Z,25.66
2017-09-05T09:54:40.959Z,25.54
2017-09-05T09:59:45.510Z,25.52
2017-09-05T10:04:50.747Z,25.54
2017-09-05T10:09:55.845Z,25.59
2017-09-05T10:15:00.160Z,25.68
2017-09-05T10:20:07.374Z,25.92
2017-09-05T10:25:13.363Z,26.15
2017-09-05T10:30:21.684Z,26.50
2017-09-05T10:35:25.361Z,26.76
2017-09-05T10:40:29.333Z,26.89
2017-09-05T10:45:33.351Z,26.86
2017-09-05T10:50:37.130Z,26.62
2017-09-05T10:55:41.156Z,26.41
2017-09-05T11:00:48.183Z,26.46
2017-09-05T11:05:53.567Z,26.63
2017-09-05T11:10:57.873Z,26.80
2017-09-05T11:16:02.088Z,26.81
2017-09-05T11:21:08.143Z,26.89
2017-09-05T11:26:13.603Z,26.96
2017-09-05T11:31:18.841Z,27.02
2017-09-05T11:36:26.699Z,27.09
2017-09-05T11:41:34.345Z,27.10
2017-09-05T11:46:38.478Z,26.67
2017-09-05T11:51:44.507Z,26.42
2017-09-05T11:56:52.169Z,26.44
2017-09-05T12:01:57.977Z,26.65
2017-09-05T12:07:06.374Z,27.04
2017-09-05T12:12:12.474Z,27.54
2017-09-05T12:17:20.649Z,27.85
2017-09-05T12:22:26.663Z,28.00
2017-09-05T12:27:34.803Z,28.20
2017-09-05T12:32:41.006Z,28.65
2017-09-05T12:37:45.007Z,28.89
2017-09-05T12:42:48.467Z,28.93
2017-09-05T12:47:54.781Z,28.62
2017-09-05T12:52:58.113Z,29.03
2017-09-05T12:58:04.162Z,28.91
2017-09-05T13:03:10.907Z,28.86
2017-09-05T13:08:17.541Z,28.82
2017-09-05T13:13:24.032Z,29.01
2017-09-05T13:18:27.677Z,29.15
2017-09-05T13:23:30.614Z,29.29
2017-09-05T13:28:39.264Z,29.28
2017-09-05T13:33:42.976Z,29.44
2017-09-05T13:38:50.774Z,29.80
2017-09-05T13:43:54.177Z,30.21
2017-09-05T13:49:00.471Z,30.22
2017-09-05T13:54:03.899Z,30.04
2017-09-05T13:59:09.800Z,29.91
2017-09-05T14:04:12.246Z,30.25
2017-09-05T14:09:14.600Z,30.56
2017-09-05T14:14:19.276Z,30.48
2017-09-05T14:19:26.363Z,30.19
2017-09-05T14:24:28.617Z,29.53
2017-09-05T14:29:31.625Z,28.99
2017-09-05T14:34:35.490Z,28.86
2017-09-05T14:39:37.861Z,28.83
2017-09-05T14:44:40.166Z,28.88
2017-09-05T14:49:43.164Z,28.91
2017-09-05T14:54:45.324Z,29.06
2017-09-05T14:59:47.685Z,28.96
2017-09-05T15:04:49.811Z,28.97
2017-09-05T15:09:54.684Z,28.53
2017-09-05T15:15:03.961Z,27.94
2017-09-05T15:20:09.150Z,27.36
2017-09-05T15:25:17.204Z,26.94
2017-09-05T15:30:22.896Z,26.82
2017-09-05T15:35:25.630Z,26.81
2017-09-05T15:40:28.327Z,26.76
2017-09-05T15:45:30.576Z,26.71
2017-09-05T15:50:32.772Z,26.65
2017-09-05T15:55:35.193Z,26.68
2017-09-05T16:00:37.991Z,26.68
2017-09-05T16:05:42.779Z,26.68
2017-09-05T16:10:45.222Z,26.65
2017-09-05T16:15:49.379Z,26.63
2017-09-05T16:20:56.542Z,26.56
2017-09-05T16:25:59.879Z,26.42
2017-09-05T16:31:02.114Z,26.37
2017-09-05T16:36:04.289Z,26.30
2017-09-05T16:41:07.112Z,26.27
2017-09-05T16:46:09.871Z,26.20
2017-09-05T16:51:12.274Z,26.22
2017-09-05T16:56:14.981Z,26.23
2017-09-05T17:01:18.287Z,26.16
2017-09-05T17:06:20.677Z,26.00
2017-09-05T17:11:23.259Z,25.79
2017-09-05T17:16:25.410Z,25.75
2017-09-05T17:21:28.883Z,25.47
2017-09-05T17:26:31.479Z,25.44
2017-09-05T17:31:33.861Z,25.45
2017-09-05T17:36:36.038Z,25.43
2017-09-05T17:41:38.310Z,25.34
2017-09-05T17:46:40.679Z,25.29
2017-09-05T17:51:43.082Z,25.23
2017-09-05T17:56:45.563Z,25.16
2017-09-05T18:01:53.741Z,25.11
2017-09-05T18:06:56.004Z,25.04
2017-09-05T18:11:59.942Z,24.97
2017-09-05T18:17:03.000Z,24.85
2017-09-05T18:22:05.275Z,24.73
2017-09-05T18:27:08.378Z,24.67
2017-09-05T18:32:13.479Z,24.42
2017-09-05T18:37:23.118Z,24.27
2017-09-05T18:42:32.088Z,24.04
2017-09-05T18:47:38.618Z,23.90
2017-09-05T18:52:42.054Z,23.86
2017-09-05T18:57:45.345Z,23.69
2017-09-05T19:02:50.001Z,23.60
2017-09-05T19:07:57.060Z,23.58
2017-09-05T19:13:05.697Z,23.54
2017-09-05T19:18:13.805Z,23.51
2017-09-05T19:23:16.019Z,23.55
2017-09-05T19:28:22.250Z,23.63
2017-09-05T19:33:25.404Z,23.68
2017-09-05T19:38:32.158Z,23.74
2017-09-05T19:43:38.272Z,23.79
2017-09-05T19:48:40.534Z,23.82
2017-09-05T19:53:42.860Z,23.81
2017-09-05T19:58:45.182Z,23.81
2017-09-05T20:03:47.140Z,23.79
2017-09-05T20:08:49.062Z,23.77
2017-09-05T20:13:51.386Z,23.75
2017-09-05T20:18:53.778Z,23.76
2017-09-05T20:23:55.720Z,23.82
2017-09-05T20:28:58.149Z,23.80
2017-09-05T20:34:00.067Z,23.79
2017-09-05T20:39:02.032Z,23.79
2017-09-05T20:44:04.030Z,23.76
2017-09-05T20:49:06.044Z,23.79
2017-09-05T20:54:08.011Z,23.76
2017-09-05T20:59:10.800Z,23.63
2017-09-05T21:04:12.775Z,23.43
2017-09-05T21:09:14.740Z,23.23
2017-09-05T21:14:16.677Z,23.21
2017-09-05T21:19:18.624Z,23.07
2017-09-05T21:24:20.589Z,22.93
2017-09-05T21:29:22.591Z,22.88
2017-09-05T21:34:24.964Z,22.63
2017-09-05T21:39:27.060Z,22.42
2017-09-05T21:44:29.096Z,22.67
2017-09-05T21:49:31.115Z,22.80
2017-09-05T21:54:33.270Z,22.94
2017-09-05T21:59:35.266Z,22.99
2017-09-05T22:04:37.620Z,22.97
2017-09-05T22:09:39.687Z,23.02
2017-09-05T22:14:47.799Z,23.07
2017-09-05T22:19:55.862Z,23.06
2017-09-05T22:25:03.767Z,23.04
2017-09-05T22:30:07.020Z,23.08
2017-09-05T22:35:09.124Z,23.10
2017-09-05T22:40:11.149Z,23.07
2017-09-05T22:45:13.089Z,23.06
2017-09-05T22:50:15.019Z,23.09
2017-09-05T22:55:16.944Z,23.13
2017-09-05T23:00:19.252Z,23.13
2017-09-05T23:05:21.157Z,23.12
2017-09-05T23:10:23.715Z,23.15
2017-09-05T23:15:25.977Z,23.17
2017-09-05T23:20:27.975Z,23.19
2017-09-05T23:25:29.903Z,23.17
2017-09-05T23:30:32.008Z,23.13
2017-09-05T23:35:34.815Z,23.20
2017-09-05T23:40:36.848Z,23.15
2017-09-05T23:45:38.789Z,23.15
2017-09-05T23:50:40.746Z,23.14
2017-09-05T23:55:44.191Z,23.07
